sensor_id;sensor_type;location;lat;lon;timestamp;temperature;humidity
59469;DHT22;45277;52.768;18.262;2023-11-19T00:00:43;-3.10;99.90
59469;DHT22;45277;52.768;18.262;2023-11-19T00:02:35;-3.20;99.90
59469;DHT22;45277;52.768;18.262;2023-11-19T00:04:06;-3.20;99.90
59469;DHT22;45277;52.768;18.262;2023-11-19T00:05:37;-3.20;99.90
59469;DHT22;45277;52.768;18.262;2023-11-19T00:07:09;-3.20;99.90
59469;DHT22;45277;52.768;18.262;2023-11-19T00:08:43;-3.30;99.90
59469;DHT22;45277;52.768;18.262;2023-11-19T00:10:17;-3.30;99.90
59469;DHT22;45277;52.768;18.262;2023-11-19T00:11:50;-3.40;99.90
59469;DHT22;45277;52.768;18.262;2023-11-19T00:13:21;-3.40;99.90
59469;DHT22;45277;52.768;18.262;2023-11-19T00:14:54;-3.40;99.90
59469;DHT22;45277;52.768;18.262;2023-11-19T00:16:26;-3.50;99.90
59469;DHT22;45277;52.768;18.262;2023-11-19T00:17:57;-3.50;99.90
59469;DHT22;45277;52.768;18.262;2023-11-19T00:19:29;-3.50;99.90
59469;DHT22;45277;52.768;18.262;2023-11-19T00:21:01;-3.50;99.90
59469;DHT22;45277;52.768;18.262;2023-11-19T00:22:33;-3.50;99.90
59469;DHT22;45277;52.768;18.262;2023-11-19T00:24:05;-3.50;99.90
59469;DHT22;45277;52.768;18.262;2023-11-19T00:25:37;-3.50;99.90
59469;DHT22;45277;52.768;18.262;2023-11-19T00:27:09;-3.60;99.90
59469;DHT22;45277;52.768;18.262;2023-11-19T00:28:41;-3.60;99.90
59469;DHT22;45277;52.768;18.262;2023-11-19T00:30:15;-3.60;99.90
59469;DHT22;45277;52.768;18.262;2023-11-19T00:31:46;-3.60;99.90
59469;DHT22;45277;52.768;18.262;2023-11-19T00:33:18;-3.60;99.90
59469;DHT22;45277;52.768;18.262;2023-11-19T00:34:50;-3.70;99.90
59469;DHT22;45277;52.768;18.262;2023-11-19T00:36:22;-3.70;99.90
59469;DHT22;45277;52.768;18.262;2023-11-19T00:37:54;-3.70;99.90
59469;DHT22;45277;52.768;18.262;2023-11-19T00:39:26;-3.70;99.90
59469;DHT22;45277;52.768;18.262;2023-11-19T00:40:58;-3.70;99.90
59469;DHT22;45277;52.768;18.262;2023-11-19T00:42:29;-3.70;99.90
59469;DHT22;45277;52.768;18.262;2023-11-19T00:44:01;-3.70;99.90
59469;DHT22;45277;52.768;18.262;2023-11-19T00:45:32;-3.70;99.90
59469;DHT22;45277;52.768;18.262;2023-11-19T00:47:04;-3.80;99.90
59469;DHT22;45277;52.768;18.262;2023-11-19T00:48:37;-3.80;99.90
59469;DHT22;45277;52.768;18.262;2023-11-19T00:50:09;-3.90;99.90
59469;DHT22;45277;52.768;18.262;2023-11-19T00:51:40;-3.90;99.90
59469;DHT22;45277;52.768;18.262;2023-11-19T00:53:12;-3.80;99.90
59469;DHT22;45277;52.768;18.262;2023-11-19T00:54:44;-3.90;99.90
59469;DHT22;45277;52.768;18.262;2023-11-19T00:56:15;-3.90;99.90
59469;DHT22;45277;52.768;18.262;2023-11-19T00:57:48;-4.00;99.90
59469;DHT22;45277;52.768;18.262;2023-11-19T00:59:20;-4.00;99.90
59469;DHT22;45277;52.768;18.262;2023-11-19T01:00:52;-4.00;99.90
59469;DHT22;45277;52.768;18.262;2023-11-19T01:02:24;-4.00;99.90
59469;DHT22;45277;52.768;18.262;2023-11-19T01:03:55;-4.00;99.90
59469;DHT22;45277;52.768;18.262;2023-11-19T01:05:28;-4.00;99.90
59469;DHT22;45277;52.768;18.262;2023-11-19T01:07:01;-4.10;99.90
59469;DHT22;45277;52.768;18.262;2023-11-19T01:08:34;-4.10;99.90
59469;DHT22;45277;52.768;18.262;2023-11-19T01:10:07;-4.10;99.90
59469;DHT22;45277;52.768;18.262;2023-11-19T01:11:39;-4.00;99.90
59469;DHT22;45277;52.768;18.262;2023-11-19T01:13:11;-4.00;99.90
59469;DHT22;45277;52.768;18.262;2023-11-19T01:14:42;-3.90;99.90
59469;DHT22;45277;52.768;18.262;2023-11-19T01:16:14;-3.80;99.90
59469;DHT22;45277;52.768;18.262;2023-11-19T01:17:45;-3.80;99.90
59469;DHT22;45277;52.768;18.262;2023-11-19T01:19:17;-3.70;99.90
59469;DHT22;45277;52.768;18.262;2023-11-19T01:20:48;-3.80;99.90
59469;DHT22;45277;52.768;18.262;2023-11-19T01:22:20;-3.70;99.90
59469;DHT22;45277;52.768;18.262;2023-11-19T01:23:51;-3.70;99.90
59469;DHT22;45277;52.768;18.262;2023-11-19T01:25:23;-3.60;99.90
59469;DHT22;45277;52.768;18.262;2023-11-19T01:26:54;-3.60;99.90
59469;DHT22;45277;52.768;18.262;2023-11-19T01:28:26;-3.60;99.90
59469;DHT22;45277;52.768;18.262;2023-11-19T01:29:57;-3.60;99.90
59469;DHT22;45277;52.768;18.262;2023-11-19T01:31:30;-3.60;99.90
59469;DHT22;45277;52.768;18.262;2023-11-19T01:33:02;-3.60;99.90
59469;DHT22;45277;52.768;18.262;2023-11-19T01:34:34;-3.70;99.90
59469;DHT22;45277;52.768;18.262;2023-11-19T01:36:07;-3.70;99.90
59469;DHT22;45277;52.768;18.262;2023-11-19T01:37:39;-3.60;99.90
59469;DHT22;45277;52.768;18.262;2023-11-19T01:39:10;-3.70;99.90
59469;DHT22;45277;52.768;18.262;2023-11-19T01:40:42;-3.70;99.90
59469;DHT22;45277;52.768;18.262;2023-11-19T01:42:13;-3.70;99.90
59469;DHT22;45277;52.768;18.262;2023-11-19T01:43:45;-3.80;99.90
59469;DHT22;45277;52.768;18.262;2023-11-19T01:45:27;-3.90;99.90
59469;DHT22;45277;52.768;18.262;2023-11-19T01:47:08;-3.90;99.90
59469;DHT22;45277;52.768;18.262;2023-11-19T01:48:44;-3.90;99.90
59469;DHT22;45277;52.768;18.262;2023-11-19T01:50:16;-3.90;99.90
59469;DHT22;45277;52.768;18.262;2023-11-19T01:51:47;-3.90;99.90
59469;DHT22;45277;52.768;18.262;2023-11-19T01:53:20;-3.90;99.90
59469;DHT22;45277;52.768;18.262;2023-11-19T01:54:53;-4.00;99.90
59469;DHT22;45277;52.768;18.262;2023-11-19T01:56:26;-4.00;99.90
59469;DHT22;45277;52.768;18.262;2023-11-19T01:58:00;-4.10;99.90
59469;DHT22;45277;52.768;18.262;2023-11-19T01:59:32;-4.10;99.90
59469;DHT22;45277;52.768;18.262;2023-11-19T02:01:07;-4.10;99.90
59469;DHT22;45277;52.768;18.262;2023-11-19T02:02:39;-4.10;99.90
59469;DHT22;45277;52.768;18.262;2023-11-19T02:04:11;-4.00;99.90
59469;DHT22;45277;52.768;18.262;2023-11-19T02:05:43;-4.00;99.90
59469;DHT22;45277;52.768;18.262;2023-11-19T02:07:15;-3.90;99.90
59469;DHT22;45277;52.768;18.262;2023-11-19T02:08:49;-3.90;99.90
59469;DHT22;45277;52.768;18.262;2023-11-19T02:10:21;-3.80;99.90
59469;DHT22;45277;52.768;18.262;2023-11-19T02:11:56;-3.60;99.90
59469;DHT22;45277;52.768;18.262;2023-11-19T02:13:27;-3.30;99.90
59469;DHT22;45277;52.768;18.262;2023-11-19T02:15:00;-3.20;99.90
59469;DHT22;45277;52.768;18.262;2023-11-19T02:16:31;-2.90;99.90
59469;DHT22;45277;52.768;18.262;2023-11-19T02:18:25;-2.70;99.90
59469;DHT22;45277;52.768;18.262;2023-11-19T02:19:58;-2.50;99.90
59469;DHT22;45277;52.768;18.262;2023-11-19T02:21:30;-2.30;99.90
59469;DHT22;45277;52.768;18.262;2023-11-19T02:23:02;-2.20;99.90
59469;DHT22;45277;52.768;18.262;2023-11-19T02:24:34;-2.00;99.90
59469;DHT22;45277;52.768;18.262;2023-11-19T02:29:20;-1.70;99.90
59469;DHT22;45277;52.768;18.262;2023-11-19T02:30:51;-1.60;99.90
59469;DHT22;45277;52.768;18.262;2023-11-19T02:32:27;-1.60;99.90
59469;DHT22;45277;52.768;18.262;2023-11-19T02:33:59;-1.50;99.90
59469;DHT22;45277;52.768;18.262;2023-11-19T02:35:33;-1.40;99.90
59469;DHT22;45277;52.768;18.262;2023-11-19T02:37:05;-1.40;99.90
59469;DHT22;45277;52.768;18.262;2023-11-19T02:38:36;-1.30;99.90
59469;DHT22;45277;52.768;18.262;2023-11-19T02:40:08;-1.30;99.90
59469;DHT22;45277;52.768;18.262;2023-11-19T02:41:40;-1.30;99.90
59469;DHT22;45277;52.768;18.262;2023-11-19T02:43:11;-1.30;99.90
59469;DHT22;45277;52.768;18.262;2023-11-19T02:44:45;-1.20;99.90
59469;DHT22;45277;52.768;18.262;2023-11-19T02:46:16;-1.20;99.90
59469;DHT22;45277;52.768;18.262;2023-11-19T02:47:48;-1.20;99.90
59469;DHT22;45277;52.768;18.262;2023-11-19T02:49:20;-1.20;99.90
59469;DHT22;45277;52.768;18.262;2023-11-19T02:50:51;-1.10;99.90
59469;DHT22;45277;52.768;18.262;2023-11-19T02:52:23;-1.10;99.90
59469;DHT22;45277;52.768;18.262;2023-11-19T02:53:56;-1.10;99.90
59469;DHT22;45277;52.768;18.262;2023-11-19T02:55:27;-1.10;99.90
59469;DHT22;45277;52.768;18.262;2023-11-19T02:57:01;-1.10;99.90
59469;DHT22;45277;52.768;18.262;2023-11-19T02:58:35;-1.10;99.90
59469;DHT22;45277;52.768;18.262;2023-11-19T03:00:07;-1.10;99.90
59469;DHT22;45277;52.768;18.262;2023-11-19T03:01:43;-1.20;99.90
59469;DHT22;45277;52.768;18.262;2023-11-19T03:03:20;-1.20;99.90
59469;DHT22;45277;52.768;18.262;2023-11-19T03:04:53;-1.20;99.90
59469;DHT22;45277;52.768;18.262;2023-11-19T03:06:25;-1.20;99.90
59469;DHT22;45277;52.768;18.262;2023-11-19T03:07:57;-1.20;99.90
59469;DHT22;45277;52.768;18.262;2023-11-19T03:09:28;-1.10;99.90
59469;DHT22;45277;52.768;18.262;2023-11-19T03:11:00;-1.00;99.90
59469;DHT22;45277;52.768;18.262;2023-11-19T03:12:32;-1.00;99.90
59469;DHT22;45277;52.768;18.262;2023-11-19T03:14:03;-0.90;99.90
59469;DHT22;45277;52.768;18.262;2023-11-19T03:15:35;-0.90;99.90
59469;DHT22;45277;52.768;18.262;2023-11-19T03:17:06;-0.80;99.90
59469;DHT22;45277;52.768;18.262;2023-11-19T03:18:38;-0.80;99.90
59469;DHT22;45277;52.768;18.262;2023-11-19T03:20:11;-0.80;99.90
59469;DHT22;45277;52.768;18.262;2023-11-19T03:21:46;-0.80;99.90
59469;DHT22;45277;52.768;18.262;2023-11-19T03:23:19;-0.70;99.90
59469;DHT22;45277;52.768;18.262;2023-11-19T03:24:53;-0.70;99.90
59469;DHT22;45277;52.768;18.262;2023-11-19T03:26:26;-0.70;99.90
59469;DHT22;45277;52.768;18.262;2023-11-19T03:27:58;-0.70;99.90
59469;DHT22;45277;52.768;18.262;2023-11-19T03:29:29;-0.70;99.90
59469;DHT22;45277;52.768;18.262;2023-11-19T03:31:04;-0.70;99.90
59469;DHT22;45277;52.768;18.262;2023-11-19T03:32:36;-0.70;99.90
59469;DHT22;45277;52.768;18.262;2023-11-19T03:34:07;-0.70;99.90
59469;DHT22;45277;52.768;18.262;2023-11-19T03:35:39;-0.70;99.90
59469;DHT22;45277;52.768;18.262;2023-11-19T03:37:12;-0.70;99.90
59469;DHT22;45277;52.768;18.262;2023-11-19T03:38:47;-0.60;99.90
59469;DHT22;45277;52.768;18.262;2023-11-19T03:40:19;-0.50;99.90
59469;DHT22;45277;52.768;18.262;2023-11-19T03:41:51;-0.50;99.90
59469;DHT22;45277;52.768;18.262;2023-11-19T03:43:22;-0.60;99.90
59469;DHT22;45277;52.768;18.262;2023-11-19T03:44:54;-0.50;99.90
59469;DHT22;45277;52.768;18.262;2023-11-19T03:46:25;-0.50;99.90
59469;DHT22;45277;52.768;18.262;2023-11-19T03:47:56;-0.50;99.90
59469;DHT22;45277;52.768;18.262;2023-11-19T03:49:28;-0.50;99.90
59469;DHT22;45277;52.768;18.262;2023-11-19T03:50:59;-0.40;99.90
59469;DHT22;45277;52.768;18.262;2023-11-19T03:52:31;-0.30;99.90
59469;DHT22;45277;52.768;18.262;2023-11-19T03:54:02;-0.30;99.90
59469;DHT22;45277;52.768;18.262;2023-11-19T03:55:34;-0.20;99.90
59469;DHT22;45277;52.768;18.262;2023-11-19T03:57:05;-0.20;99.90
59469;DHT22;45277;52.768;18.262;2023-11-19T03:58:37;-0.20;99.90
59469;DHT22;45277;52.768;18.262;2023-11-19T04:00:09;-0.20;99.90
59469;DHT22;45277;52.768;18.262;2023-11-19T04:01:41;-0.20;99.90
59469;DHT22;45277;52.768;18.262;2023-11-19T04:03:13;-0.10;99.90
59469;DHT22;45277;52.768;18.262;2023-11-19T04:04:44;-0.10;99.90
59469;DHT22;45277;52.768;18.262;2023-11-19T04:06:15;-0.20;99.90
59469;DHT22;45277;52.768;18.262;2023-11-19T04:07:47;-0.20;99.90
59469;DHT22;45277;52.768;18.262;2023-11-19T04:09:18;-0.10;99.90
59469;DHT22;45277;52.768;18.262;2023-11-19T04:10:50;-0.10;99.90
59469;DHT22;45277;52.768;18.262;2023-11-19T04:12:21;-0.10;99.90
59469;DHT22;45277;52.768;18.262;2023-11-19T04:13:53;0.00;99.90
59469;DHT22;45277;52.768;18.262;2023-11-19T04:15:24;0.00;99.90
59469;DHT22;45277;52.768;18.262;2023-11-19T04:16:56;0.00;99.90
59469;DHT22;45277;52.768;18.262;2023-11-19T04:18:27;0.00;99.90
59469;DHT22;45277;52.768;18.262;2023-11-19T04:19:59;-0.10;99.90
59469;DHT22;45277;52.768;18.262;2023-11-19T04:21:30;0.00;99.90
59469;DHT22;45277;52.768;18.262;2023-11-19T04:23:02;0.00;99.90
59469;DHT22;45277;52.768;18.262;2023-11-19T04:24:33;0.00;99.90
59469;DHT22;45277;52.768;18.262;2023-11-19T04:26:05;0.00;99.90
59469;DHT22;45277;52.768;18.262;2023-11-19T04:27:37;0.10;99.90
59469;DHT22;45277;52.768;18.262;2023-11-19T04:29:09;0.00;99.90
59469;DHT22;45277;52.768;18.262;2023-11-19T04:30:42;0.10;99.90
59469;DHT22;45277;52.768;18.262;2023-11-19T04:32:14;0.10;99.90
59469;DHT22;45277;52.768;18.262;2023-11-19T04:33:45;0.10;99.90
59469;DHT22;45277;52.768;18.262;2023-11-19T04:35:17;0.10;99.90
59469;DHT22;45277;52.768;18.262;2023-11-19T04:36:50;0.10;99.90
59469;DHT22;45277;52.768;18.262;2023-11-19T04:38:21;0.10;99.90
59469;DHT22;45277;52.768;18.262;2023-11-19T04:39:53;0.10;99.90
59469;DHT22;45277;52.768;18.262;2023-11-19T04:41:24;0.10;99.90
59469;DHT22;45277;52.768;18.262;2023-11-19T04:42:55;0.10;99.90
59469;DHT22;45277;52.768;18.262;2023-11-19T04:44:27;0.10;99.90
59469;DHT22;45277;52.768;18.262;2023-11-19T04:45:58;0.10;99.90
59469;DHT22;45277;52.768;18.262;2023-11-19T04:47:29;0.10;99.90
59469;DHT22;45277;52.768;18.262;2023-11-19T04:49:01;0.10;99.90
59469;DHT22;45277;52.768;18.262;2023-11-19T04:50:32;0.10;99.90
59469;DHT22;45277;52.768;18.262;2023-11-19T04:52:04;0.20;99.90
59469;DHT22;45277;52.768;18.262;2023-11-19T04:53:35;0.10;99.90
59469;DHT22;45277;52.768;18.262;2023-11-19T04:55:07;0.20;99.90
59469;DHT22;45277;52.768;18.262;2023-11-19T04:56:39;0.20;99.90
59469;DHT22;45277;52.768;18.262;2023-11-19T04:58:11;0.20;99.90
59469;DHT22;45277;52.768;18.262;2023-11-19T04:59:42;0.20;99.90
59469;DHT22;45277;52.768;18.262;2023-11-19T05:01:14;0.30;99.90
59469;DHT22;45277;52.768;18.262;2023-11-19T05:02:48;0.30;99.90
59469;DHT22;45277;52.768;18.262;2023-11-19T05:04:20;0.20;99.90
59469;DHT22;45277;52.768;18.262;2023-11-19T05:05:51;0.30;99.90
59469;DHT22;45277;52.768;18.262;2023-11-19T05:07:23;0.30;99.90
59469;DHT22;45277;52.768;18.262;2023-11-19T05:08:54;0.20;99.90
59469;DHT22;45277;52.768;18.262;2023-11-19T05:10:25;0.30;99.90
59469;DHT22;45277;52.768;18.262;2023-11-19T05:11:57;0.30;99.90
59469;DHT22;45277;52.768;18.262;2023-11-19T05:13:28;0.30;99.90
59469;DHT22;45277;52.768;18.262;2023-11-19T05:14:59;0.30;99.90
59469;DHT22;45277;52.768;18.262;2023-11-19T05:16:32;0.30;99.90
59469;DHT22;45277;52.768;18.262;2023-11-19T05:18:03;0.30;99.90
59469;DHT22;45277;52.768;18.262;2023-11-19T05:19:35;0.30;99.90
59469;DHT22;45277;52.768;18.262;2023-11-19T05:21:07;0.30;99.90
59469;DHT22;45277;52.768;18.262;2023-11-19T05:22:39;0.30;99.90
59469;DHT22;45277;52.768;18.262;2023-11-19T05:24:11;0.30;99.90
59469;DHT22;45277;52.768;18.262;2023-11-19T05:25:43;0.30;99.90
59469;DHT22;45277;52.768;18.262;2023-11-19T05:27:14;0.40;99.90
59469;DHT22;45277;52.768;18.262;2023-11-19T05:28:45;0.30;99.90
59469;DHT22;45277;52.768;18.262;2023-11-19T05:30:17;0.30;99.90
59469;DHT22;45277;52.768;18.262;2023-11-19T05:31:48;0.40;99.90
59469;DHT22;45277;52.768;18.262;2023-11-19T05:33:20;0.40;99.90
59469;DHT22;45277;52.768;18.262;2023-11-19T05:34:52;0.40;99.90
59469;DHT22;45277;52.768;18.262;2023-11-19T05:36:23;0.40;99.90
59469;DHT22;45277;52.768;18.262;2023-11-19T05:37:54;0.40;99.90
59469;DHT22;45277;52.768;18.262;2023-11-19T05:39:28;0.40;99.90
59469;DHT22;45277;52.768;18.262;2023-11-19T05:40:59;0.40;99.90
59469;DHT22;45277;52.768;18.262;2023-11-19T05:42:30;0.40;99.90
59469;DHT22;45277;52.768;18.262;2023-11-19T05:44:02;0.40;99.90
59469;DHT22;45277;52.768;18.262;2023-11-19T05:45:33;0.40;99.90
59469;DHT22;45277;52.768;18.262;2023-11-19T05:47:04;0.40;99.90
59469;DHT22;45277;52.768;18.262;2023-11-19T05:48:36;0.40;99.90
59469;DHT22;45277;52.768;18.262;2023-11-19T05:50:08;0.40;99.90
59469;DHT22;45277;52.768;18.262;2023-11-19T05:51:40;0.40;99.90
59469;DHT22;45277;52.768;18.262;2023-11-19T05:53:12;0.50;99.90
59469;DHT22;45277;52.768;18.262;2023-11-19T05:54:45;0.50;99.90
59469;DHT22;45277;52.768;18.262;2023-11-19T05:56:19;0.50;99.90
59469;DHT22;45277;52.768;18.262;2023-11-19T05:57:52;0.50;99.90
59469;DHT22;45277;52.768;18.262;2023-11-19T05:59:24;0.50;99.90
59469;DHT22;45277;52.768;18.262;2023-11-19T06:00:56;0.50;99.90
59469;DHT22;45277;52.768;18.262;2023-11-19T06:02:27;0.50;99.90
59469;DHT22;45277;52.768;18.262;2023-11-19T06:03:59;0.50;99.90
59469;DHT22;45277;52.768;18.262;2023-11-19T06:05:31;0.50;99.90
59469;DHT22;45277;52.768;18.262;2023-11-19T06:07:03;0.50;99.90
59469;DHT22;45277;52.768;18.262;2023-11-19T06:08:36;0.50;99.90
59469;DHT22;45277;52.768;18.262;2023-11-19T06:10:08;0.50;99.90
59469;DHT22;45277;52.768;18.262;2023-11-19T06:11:41;0.50;99.90
59469;DHT22;45277;52.768;18.262;2023-11-19T06:13:15;0.50;99.90
59469;DHT22;45277;52.768;18.262;2023-11-19T06:14:46;0.50;99.90
59469;DHT22;45277;52.768;18.262;2023-11-19T06:16:18;0.50;99.90
59469;DHT22;45277;52.768;18.262;2023-11-19T06:17:50;0.60;99.90
59469;DHT22;45277;52.768;18.262;2023-11-19T06:19:21;0.50;99.90
59469;DHT22;45277;52.768;18.262;2023-11-19T06:20:55;0.50;99.90
59469;DHT22;45277;52.768;18.262;2023-11-19T06:22:27;0.50;99.90
59469;DHT22;45277;52.768;18.262;2023-11-19T06:23:58;0.50;99.90
59469;DHT22;45277;52.768;18.262;2023-11-19T06:25:30;0.50;99.90
59469;DHT22;45277;52.768;18.262;2023-11-19T06:27:02;0.50;99.90
59469;DHT22;45277;52.768;18.262;2023-11-19T06:28:34;0.40;99.90
59469;DHT22;45277;52.768;18.262;2023-11-19T06:30:06;0.50;99.90
59469;DHT22;45277;52.768;18.262;2023-11-19T06:31:40;0.40;99.90
59469;DHT22;45277;52.768;18.262;2023-11-19T06:33:15;0.50;99.90
59469;DHT22;45277;52.768;18.262;2023-11-19T06:34:46;0.50;99.90
59469;DHT22;45277;52.768;18.262;2023-11-19T06:36:18;0.50;99.90
59469;DHT22;45277;52.768;18.262;2023-11-19T06:37:49;0.50;99.90
59469;DHT22;45277;52.768;18.262;2023-11-19T06:39:21;0.50;99.90
59469;DHT22;45277;52.768;18.262;2023-11-19T06:40:52;0.50;99.90
59469;DHT22;45277;52.768;18.262;2023-11-19T06:42:23;0.50;99.90
59469;DHT22;45277;52.768;18.262;2023-11-19T06:43:55;0.50;99.90
59469;DHT22;45277;52.768;18.262;2023-11-19T06:45:26;0.50;99.90
59469;DHT22;45277;52.768;18.262;2023-11-19T06:46:57;0.50;99.90
59469;DHT22;45277;52.768;18.262;2023-11-19T06:48:29;0.50;99.90
59469;DHT22;45277;52.768;18.262;2023-11-19T06:50:01;0.60;99.90
59469;DHT22;45277;52.768;18.262;2023-11-19T06:51:41;0.50;99.90
59469;DHT22;45277;52.768;18.262;2023-11-19T06:53:13;0.50;99.90
59469;DHT22;45277;52.768;18.262;2023-11-19T06:54:45;0.60;99.90
59469;DHT22;45277;52.768;18.262;2023-11-19T06:56:23;0.60;99.90
59469;DHT22;45277;52.768;18.262;2023-11-19T06:57:55;0.60;99.90
59469;DHT22;45277;52.768;18.262;2023-11-19T06:59:27;0.60;99.90
59469;DHT22;45277;52.768;18.262;2023-11-19T07:01:00;0.60;99.90
59469;DHT22;45277;52.768;18.262;2023-11-19T07:02:32;0.60;99.90
59469;DHT22;45277;52.768;18.262;2023-11-19T07:04:04;0.70;99.90
59469;DHT22;45277;52.768;18.262;2023-11-19T07:05:40;0.70;99.90
59469;DHT22;45277;52.768;18.262;2023-11-19T07:07:11;0.70;99.90
59469;DHT22;45277;52.768;18.262;2023-11-19T07:08:44;0.70;99.90
59469;DHT22;45277;52.768;18.262;2023-11-19T07:10:16;0.70;99.90
59469;DHT22;45277;52.768;18.262;2023-11-19T07:11:47;0.70;99.90
59469;DHT22;45277;52.768;18.262;2023-11-19T07:13:21;0.70;99.90
59469;DHT22;45277;52.768;18.262;2023-11-19T07:14:52;0.70;99.90
59469;DHT22;45277;52.768;18.262;2023-11-19T07:16:24;0.80;99.90
59469;DHT22;45277;52.768;18.262;2023-11-19T07:17:55;0.80;99.90
59469;DHT22;45277;52.768;18.262;2023-11-19T07:19:28;0.80;99.90
59469;DHT22;45277;52.768;18.262;2023-11-19T07:21:00;0.80;99.90
59469;DHT22;45277;52.768;18.262;2023-11-19T07:22:32;0.80;99.90
59469;DHT22;45277;52.768;18.262;2023-11-19T07:24:03;0.90;99.90
59469;DHT22;45277;52.768;18.262;2023-11-19T07:25:36;0.90;99.90
59469;DHT22;45277;52.768;18.262;2023-11-19T07:27:08;0.90;99.90
59469;DHT22;45277;52.768;18.262;2023-11-19T07:28:42;0.90;99.90
59469;DHT22;45277;52.768;18.262;2023-11-19T07:30:16;0.90;99.90
59469;DHT22;45277;52.768;18.262;2023-11-19T07:31:49;1.00;99.90
59469;DHT22;45277;52.768;18.262;2023-11-19T07:33:20;1.00;99.90
59469;DHT22;45277;52.768;18.262;2023-11-19T07:34:52;1.00;99.90
59469;DHT22;45277;52.768;18.262;2023-11-19T07:36:24;1.00;99.90
59469;DHT22;45277;52.768;18.262;2023-11-19T07:37:55;1.00;99.90
59469;DHT22;45277;52.768;18.262;2023-11-19T07:39:28;1.10;99.90
59469;DHT22;45277;52.768;18.262;2023-11-19T07:40:59;1.00;99.90
59469;DHT22;45277;52.768;18.262;2023-11-19T07:42:31;1.10;99.90
59469;DHT22;45277;52.768;18.262;2023-11-19T07:44:03;1.00;99.90
59469;DHT22;45277;52.768;18.262;2023-11-19T07:45:34;1.10;99.90
59469;DHT22;45277;52.768;18.262;2023-11-19T07:47:06;1.10;99.90
59469;DHT22;45277;52.768;18.262;2023-11-19T07:48:37;1.10;99.90
59469;DHT22;45277;52.768;18.262;2023-11-19T07:50:09;1.10;99.90
59469;DHT22;45277;52.768;18.262;2023-11-19T07:51:40;1.10;99.90
59469;DHT22;45277;52.768;18.262;2023-11-19T07:53:13;1.10;99.90
59469;DHT22;45277;52.768;18.262;2023-11-19T07:54:44;1.10;99.90
59469;DHT22;45277;52.768;18.262;2023-11-19T07:56:15;1.10;99.90
59469;DHT22;45277;52.768;18.262;2023-11-19T07:57:47;1.10;99.90
59469;DHT22;45277;52.768;18.262;2023-11-19T07:59:20;1.10;99.90
59469;DHT22;45277;52.768;18.262;2023-11-19T08:00:52;1.10;99.90
59469;DHT22;45277;52.768;18.262;2023-11-19T08:02:23;1.10;99.90
59469;DHT22;45277;52.768;18.262;2023-11-19T08:03:55;1.10;99.90
59469;DHT22;45277;52.768;18.262;2023-11-19T08:05:26;1.10;99.90
59469;DHT22;45277;52.768;18.262;2023-11-19T08:06:58;1.10;99.90
59469;DHT22;45277;52.768;18.262;2023-11-19T08:08:29;1.10;99.90
59469;DHT22;45277;52.768;18.262;2023-11-19T08:10:01;1.20;99.90
59469;DHT22;45277;52.768;18.262;2023-11-19T08:11:33;1.10;99.90
59469;DHT22;45277;52.768;18.262;2023-11-19T08:13:05;1.10;99.90
59469;DHT22;45277;52.768;18.262;2023-11-19T08:14:36;1.10;99.90
59469;DHT22;45277;52.768;18.262;2023-11-19T08:16:08;1.10;99.90
59469;DHT22;45277;52.768;18.262;2023-11-19T08:17:40;1.10;99.90
59469;DHT22;45277;52.768;18.262;2023-11-19T08:19:12;1.20;99.90
59469;DHT22;45277;52.768;18.262;2023-11-19T08:20:44;1.20;99.90
59469;DHT22;45277;52.768;18.262;2023-11-19T08:22:16;1.20;99.90
59469;DHT22;45277;52.768;18.262;2023-11-19T08:23:47;1.20;99.90
59469;DHT22;45277;52.768;18.262;2023-11-19T08:25:19;1.20;99.90
59469;DHT22;45277;52.768;18.262;2023-11-19T08:26:50;1.20;99.90
59469;DHT22;45277;52.768;18.262;2023-11-19T08:28:22;1.20;99.90
59469;DHT22;45277;52.768;18.262;2023-11-19T08:29:54;1.20;99.90
59469;DHT22;45277;52.768;18.262;2023-11-19T08:31:28;1.20;99.90
59469;DHT22;45277;52.768;18.262;2023-11-19T08:33:00;1.20;99.90
59469;DHT22;45277;52.768;18.262;2023-11-19T08:34:34;1.30;99.90
59469;DHT22;45277;52.768;18.262;2023-11-19T08:36:06;1.30;99.90
59469;DHT22;45277;52.768;18.262;2023-11-19T08:37:37;1.30;99.90
59469;DHT22;45277;52.768;18.262;2023-11-19T08:39:10;1.30;99.90
59469;DHT22;45277;52.768;18.262;2023-11-19T08:40:42;1.30;99.90
59469;DHT22;45277;52.768;18.262;2023-11-19T08:42:13;1.40;99.90
59469;DHT22;45277;52.768;18.262;2023-11-19T08:43:46;1.40;99.90
59469;DHT22;45277;52.768;18.262;2023-11-19T08:45:18;1.40;99.90
59469;DHT22;45277;52.768;18.262;2023-11-19T08:46:49;1.40;99.90
59469;DHT22;45277;52.768;18.262;2023-11-19T08:48:21;1.40;99.90
59469;DHT22;45277;52.768;18.262;2023-11-19T08:49:53;1.40;99.90
59469;DHT22;45277;52.768;18.262;2023-11-19T08:51:25;1.40;99.90
59469;DHT22;45277;52.768;18.262;2023-11-19T08:52:57;1.50;99.90
59469;DHT22;45277;52.768;18.262;2023-11-19T08:54:29;1.50;99.90
59469;DHT22;45277;52.768;18.262;2023-11-19T08:56:01;1.50;99.90
59469;DHT22;45277;52.768;18.262;2023-11-19T08:57:34;1.50;99.90
59469;DHT22;45277;52.768;18.262;2023-11-19T08:59:05;1.50;99.90
59469;DHT22;45277;52.768;18.262;2023-11-19T09:00:36;1.60;99.90
59469;DHT22;45277;52.768;18.262;2023-11-19T09:02:08;1.60;99.90
59469;DHT22;45277;52.768;18.262;2023-11-19T09:03:40;1.60;99.90
59469;DHT22;45277;52.768;18.262;2023-11-19T09:05:11;1.70;99.90
59469;DHT22;45277;52.768;18.262;2023-11-19T09:06:44;1.70;99.90
59469;DHT22;45277;52.768;18.262;2023-11-19T09:08:15;1.80;99.90
59469;DHT22;45277;52.768;18.262;2023-11-19T09:09:47;1.80;99.90
59469;DHT22;45277;52.768;18.262;2023-11-19T09:11:18;1.80;99.90
59469;DHT22;45277;52.768;18.262;2023-11-19T09:12:50;1.90;99.90
59469;DHT22;45277;52.768;18.262;2023-11-19T09:14:21;1.90;99.90
59469;DHT22;45277;52.768;18.262;2023-11-19T09:15:57;1.90;99.90
59469;DHT22;45277;52.768;18.262;2023-11-19T09:17:34;1.90;99.90
59469;DHT22;45277;52.768;18.262;2023-11-19T09:19:05;2.00;99.90
59469;DHT22;45277;52.768;18.262;2023-11-19T09:20:37;2.10;99.90
59469;DHT22;45277;52.768;18.262;2023-11-19T09:22:09;2.10;99.90
59469;DHT22;45277;52.768;18.262;2023-11-19T09:23:40;2.10;99.90
59469;DHT22;45277;52.768;18.262;2023-11-19T09:25:13;2.10;99.90
59469;DHT22;45277;52.768;18.262;2023-11-19T09:26:47;2.00;99.90
59469;DHT22;45277;52.768;18.262;2023-11-19T09:28:19;2.10;99.90
59469;DHT22;45277;52.768;18.262;2023-11-19T09:29:50;2.10;99.90
59469;DHT22;45277;52.768;18.262;2023-11-19T09:31:28;2.10;99.90
59469;DHT22;45277;52.768;18.262;2023-11-19T09:32:59;2.10;99.90
59469;DHT22;45277;52.768;18.262;2023-11-19T09:34:31;2.10;99.90
59469;DHT22;45277;52.768;18.262;2023-11-19T09:36:03;2.10;99.90
59469;DHT22;45277;52.768;18.262;2023-11-19T09:37:34;2.10;99.90
59469;DHT22;45277;52.768;18.262;2023-11-19T09:39:06;2.10;99.90
59469;DHT22;45277;52.768;18.262;2023-11-19T09:40:39;2.20;99.90
59469;DHT22;45277;52.768;18.262;2023-11-19T09:42:10;2.20;99.90